George Allen — WDF9749 — position and weather

sailwx.info

Track history (hours):
 
Tides and Currents Weather Stations Pressure Air Temp Water Temp Dewpoint Dewpoint Depression Visibility Wind Speed Wind Dir Waves Ship Positions

George Allen

Owner: Blessey Enterprises, Inc., Harahan, LA. More information available from US FCC via Universal Licensing System and Coast Guard Vessel Documentation Center.

Last reported at 2015-Aug-29 14:27 UTC. Time now 2015-Aug-29 16:59 UTC.
Position N 29°47' W 095°04'.

Length 23 m.

Type: Towing. MMSI: 367508440.

Date/timePositionNaut miles runAvg speedWind from/ knotsBaromVisibWave heightAir tempDewpointWater temp
2015-Aug-29 14:27N 29°47' W 095°04'0 0.4
2015-Aug-29 13:31N 29°47' W 095°04'3 2.9
2015-Aug-29 12:33N 29°44' W 095°04'2 2.1
2015-Aug-29 11:33N 29°44' W 095°01'0 0.0
2015-Aug-29 10:33N 29°44' W 095°01'0 0.0
2015-Aug-29 09:33N 29°44' W 095°01'0 0.1
2015-Aug-29 08:22N 29°44' W 095°01'0 0.0
2015-Aug-29 07:32N 29°44' W 095°01'0 0.0
2015-Aug-29 06:15N 29°44' W 095°01'0 0.0
2015-Aug-29 05:07N 29°44' W 095°01'0 0.0
2015-Aug-29 04:29N 29°44' W 095°01'0 0.0
2015-Aug-29 03:33N 29°44' W 095°01'0 0.0
2015-Aug-29 02:33N 29°44' W 095°01'0 0.0
2015-Aug-29 01:33N 29°44' W 095°01'0 0.0
2015-Aug-29 00:30N 29°44' W 095°01'0 0.0
2015-Aug-28 23:33N 29°44' W 095°01'0 0.1
2015-Aug-28 22:33N 29°44' W 095°01'0 0.0
2015-Aug-28 21:33N 29°44' W 095°01'0 0.0
2015-Aug-28 20:33N 29°44' W 095°01'0 0.0
2015-Aug-28 19:33N 29°44' W 095°01'0 0.1
2015-Aug-28 18:29N 29°44' W 095°01'0 0.0
2015-Aug-28 17:28N 29°44' W 095°01'0 0.1
2015-Aug-28 16:33N 29°44' W 095°01'0 0.0
2015-Aug-28 15:31N 29°44' W 095°01'0 0.0
2015-Aug-28 14:33N 29°44' W 095°01'0 0.0
2015-Aug-28 13:33N 29°44' W 095°01'0 0.0
2015-Aug-28 12:28N 29°44' W 095°01'0 0.0
2015-Aug-28 11:33N 29°44' W 095°01'0 0.1
2015-Aug-28 10:33N 29°44' W 095°01'0 0.0
2015-Aug-28 09:33N 29°44' W 095°01'0 0.0
2015-Aug-28 08:33N 29°44' W 095°01'1 0.5
2015-Aug-28 07:33N 29°44' W 095°02'4 3.9
2015-Aug-28 06:28N 29°47' W 095°04'0 0.1
2015-Aug-28 04:25N 29°47' W 095°05'0 0.0
2015-Aug-28 03:19N 29°47' W 095°05'0 0.0
2015-Aug-28 02:29N 29°47' W 095°05'1 0.8
2015-Aug-28 01:27N 29°46' W 095°05'2 1.8
2015-Aug-28 00:33N 29°45' W 095°06'6 0.5
2015-Aug-27 13:13N 29°44' W 095°12'0 0.1
2015-Aug-27 12:31N 29°45' W 095°12'0 0.0
2015-Aug-27 11:32N 29°45' W 095°12'0 0.0
2015-Aug-27 10:31N 29°45' W 095°12'0 0.0
2015-Aug-27 09:32N 29°45' W 095°12'0 0.0
2015-Aug-27 08:32N 29°45' W 095°12'0 0.0
2015-Aug-27 07:33N 29°45' W 095°12'1 0.7
2015-Aug-27 06:33N 29°45' W 095°11'7 6.4
2015-Aug-27 05:31N 29°47' W 095°04'0 0.0
2015-Aug-26 21:13N 29°47' W 095°04'0 0.1
2015-Aug-26 19:10N 29°47' W 095°05'0 0.4
2015-Aug-26 18:30N 29°47' W 095°04'0 0.3
2015-Aug-26 17:32N 29°47' W 095°05'1 0.3
2015-Aug-26 15:04N 29°47' W 095°04'0 0.0
2015-Aug-26 14:04N 29°47' W 095°04'1 0.9
2015-Aug-26 13:27N 29°47' W 095°05'0 0.1
2015-Aug-26 12:17N 29°47' W 095°05'0 0.0
2015-Aug-26 11:29N 29°47' W 095°05'0 0.0
2015-Aug-26 10:28N 29°47' W 095°05'0 0.0
2015-Aug-26 09:24N 29°47' W 095°05'0 0.0
2015-Aug-26 06:27N 29°47' W 095°05'0 0.0
2015-Aug-26 05:29N 29°47' W 095°05'0 0.0
2015-Aug-25 23:13N 29°47' W 095°05'0 0.0
2015-Aug-25 21:09N 29°47' W 095°05'0 0.0
2015-Aug-25 16:23N 29°47' W 095°05'0 0.1
2015-Aug-25 14:33N 29°47' W 095°04'0 0.1
2015-Aug-25 12:24N 29°47' W 095°05'0 0.0
2015-Aug-25 11:31N 29°47' W 095°05'0 0.0
2015-Aug-25 10:33N 29°47' W 095°05'0 0.0
2015-Aug-25 09:32N 29°47' W 095°05'0 0.0
2015-Aug-25 08:06N 29°47' W 095°05'0 0.0
2015-Aug-25 07:23N 29°47' W 095°05'0 0.2
2015-Aug-25 06:10N 29°47' W 095°04'2 2.7
2015-Aug-25 05:33N 29°46' W 095°05'2 2.3
2015-Aug-25 04:33N 29°44' W 095°03'0 0.0
2015-Aug-25 03:33N 29°44' W 095°03'0 0.0
2015-Aug-25 02:33N 29°44' W 095°03'0 0.0
2015-Aug-25 01:33N 29°44' W 095°03'0 0.0
2015-Aug-25 00:33N 29°44' W 095°03'0 0.0
2015-Aug-24 23:33N 29°44' W 095°03'0 0.0
2015-Aug-24 22:33N 29°44' W 095°03'0 0.0
2015-Aug-24 21:33N 29°44' W 095°03'0 0.0
2015-Aug-24 20:33N 29°44' W 095°03'0 0.0
2015-Aug-24 19:33N 29°44' W 095°03'0 0.0
2015-Aug-24 18:33N 29°44' W 095°03'0 0.0
2015-Aug-24 17:33N 29°44' W 095°03'0 0.0
2015-Aug-24 16:33N 29°44' W 095°03'0 0.0
2015-Aug-24 15:33N 29°44' W 095°03'0 0.0
2015-Aug-24 14:33N 29°44' W 095°03'0 0.0
2015-Aug-24 13:33N 29°44' W 095°03'0 0.0
2015-Aug-24 12:33N 29°44' W 095°03'0 0.0
2015-Aug-24 11:33N 29°44' W 095°03'0 0.0
2015-Aug-24 10:33N 29°44' W 095°03'2 1.7
2015-Aug-24 09:33N 29°45' W 095°04'2 2.0
2015-Aug-24 08:32N 29°47' W 095°05'0 0.1
2015-Aug-24 07:32N 29°47' W 095°05'0 0.2
2015-Aug-24 06:33N 29°47' W 095°05'0 0.0
2015-Aug-24 05:22N 29°47' W 095°05'0 0.0
2015-Aug-24 04:26N 29°47' W 095°05'0 0.0
2015-Aug-24 03:32N 29°47' W 095°05'0 0.0
2015-Aug-24 02:25N 29°47' W 095°05'0 0.0
2015-Aug-24 01:32N 29°47' W 095°05'0 0.0
2015-Aug-23 19:22N 29°47' W 095°05'0 0.0
2015-Aug-23 18:22N 29°47' W 095°05'0 0.0
2015-Aug-23 17:13N 29°47' W 095°05'0 0.0
2015-Aug-23 16:11N 29°47' W 095°05'0 0.0
2015-Aug-23 15:23N 29°47' W 095°05'0 0.0
2015-Aug-23 13:25N 29°47' W 095°05'0 0.0
2015-Aug-23 12:25N 29°47' W 095°05'0 0.0
2015-Aug-23 11:32N 29°47' W 095°05'0 0.0
2015-Aug-23 08:33N 29°47' W 095°05'0 0.0
2015-Aug-23 07:27N 29°47' W 095°05'0 0.0
2015-Aug-23 06:30N 29°47' W 095°05'0 0.0
2015-Aug-23 05:33N 29°47' W 095°05'0 0.0
2015-Aug-23 04:28N 29°47' W 095°05'0 0.0
2015-Aug-23 03:29N 29°47' W 095°05'0 0.0
2015-Aug-23 02:33N 29°47' W 095°05'0 0.0
2015-Aug-23 01:33N 29°47' W 095°05'0 0.0
2015-Aug-23 00:29N 29°47' W 095°05'0 0.0
2015-Aug-22 23:21N 29°47' W 095°05'0 0.0
2015-Aug-22 22:08N 29°47' W 095°05'0 0.0
2015-Aug-22 21:26N 29°47' W 095°05'0 0.0
2015-Aug-22 20:31N 29°47' W 095°05'0 0.0
2015-Aug-22 19:33N 29°47' W 095°05'0 0.0
2015-Aug-22 18:28N 29°47' W 095°05'0 0.0
2015-Aug-22 17:33N 29°47' W 095°05'0 0.0
2015-Aug-22 12:32N 29°47' W 095°05'0 0.0
2015-Aug-22 11:26N 29°47' W 095°05'0 0.0
2015-Aug-22 10:16N 29°47' W 095°05'0 0.0
2015-Aug-22 08:17N 29°47' W 095°05'0 0.0
2015-Aug-22 07:32N 29°47' W 095°05'0 0.0
2015-Aug-22 06:29N 29°47' W 095°05'0 0.0
2015-Aug-22 05:33N 29°47' W 095°05'0 0.0
2015-Aug-22 03:12N 29°47' W 095°05'0 0.0
2015-Aug-21 22:14N 29°47' W 095°05'0 0.0
2015-Aug-21 19:11N 29°47' W 095°05'0 0.0
2015-Aug-21 18:03N 29°47' W 095°05'0 0.0
2015-Aug-21 16:16N 29°47' W 095°05'0 0.0
2015-Aug-21 13:15N 29°47' W 095°05'0 0.0
2015-Aug-21 11:29N 29°47' W 095°05'0 0.0
2015-Aug-21 10:24N 29°47' W 095°05'0 0.0
2015-Aug-21 03:33N 29°47' W 095°05'3 2.8
2015-Aug-21 02:33N 29°45' W 095°06'1 1.2
2015-Aug-21 01:33N 29°46' W 095°05'2 0.8
2015-Aug-20 23:33N 29°47' W 095°05'0 0.2
2015-Aug-20 22:32N 29°47' W 095°04'0 0.1
2015-Aug-20 21:21N 29°47' W 095°05'0 0.1
2015-Aug-20 20:09N 29°47' W 095°05'0 0.3
2015-Aug-20 19:34N 29°47' W 095°05'3 3.0
2015-Aug-20 18:27N 29°44' W 095°06'6 5.2
2015-Aug-20 17:15N 29°44' W 095°13'  
Track history (hours):
 
Tides and Currents Weather Stations Pressure Air Temp Water Temp Dewpoint Dewpoint Depression Visibility Wind Speed Wind Dir Waves Ship Positions

George Allen

Owner: Blessey Enterprises, Inc., Harahan, LA. More information available from US FCC via Universal Licensing System and Coast Guard Vessel Documentation Center.

Last reported at 2015-Aug-29 14:27 UTC. Time now 2015-Aug-29 16:59 UTC.
Position N 29°47' W 095°04'.

Length 23 m.

Type: Towing. MMSI: 367508440.

Date/timePositionNaut miles runAvg speedWind from/ knotsBaromVisibWave heightAir tempDewpointWater temp
2015-Aug-29 14:27N 29°47' W 095°04'0 0.4
2015-Aug-29 13:31N 29°47' W 095°04'3 2.9
2015-Aug-29 12:33N 29°44' W 095°04'2 2.1
2015-Aug-29 11:33N 29°44' W 095°01'0 0.0
2015-Aug-29 10:33N 29°44' W 095°01'0 0.0
2015-Aug-29 09:33N 29°44' W 095°01'0 0.1
2015-Aug-29 08:22N 29°44' W 095°01'0 0.0
2015-Aug-29 07:32N 29°44' W 095°01'0 0.0
2015-Aug-29 06:15N 29°44' W 095°01'0 0.0
2015-Aug-29 05:07N 29°44' W 095°01'0 0.0
2015-Aug-29 04:29N 29°44' W 095°01'0 0.0
2015-Aug-29 03:33N 29°44' W 095°01'0 0.0
2015-Aug-29 02:33N 29°44' W 095°01'0 0.0
2015-Aug-29 01:33N 29°44' W 095°01'0 0.0
2015-Aug-29 00:30N 29°44' W 095°01'0 0.0
2015-Aug-28 23:33N 29°44' W 095°01'0 0.1
2015-Aug-28 22:33N 29°44' W 095°01'0 0.0
2015-Aug-28 21:33N 29°44' W 095°01'0 0.0
2015-Aug-28 20:33N 29°44' W 095°01'0 0.0
2015-Aug-28 19:33N 29°44' W 095°01'0 0.1
2015-Aug-28 18:29N 29°44' W 095°01'0 0.0
2015-Aug-28 17:28N 29°44' W 095°01'0 0.1
2015-Aug-28 16:33N 29°44' W 095°01'0 0.0
2015-Aug-28 15:31N 29°44' W 095°01'0 0.0
2015-Aug-28 14:33N 29°44' W 095°01'0 0.0
2015-Aug-28 13:33N 29°44' W 095°01'0 0.0
2015-Aug-28 12:28N 29°44' W 095°01'0 0.0
2015-Aug-28 11:33N 29°44' W 095°01'0 0.1
2015-Aug-28 10:33N 29°44' W 095°01'0 0.0
2015-Aug-28 09:33N 29°44' W 095°01'0 0.0
2015-Aug-28 08:33N 29°44' W 095°01'1 0.5
2015-Aug-28 07:33N 29°44' W 095°02'4 3.9
2015-Aug-28 06:28N 29°47' W 095°04'0 0.1
2015-Aug-28 04:25N 29°47' W 095°05'0 0.0
2015-Aug-28 03:19N 29°47' W 095°05'0 0.0
2015-Aug-28 02:29N 29°47' W 095°05'1 0.8
2015-Aug-28 01:27N 29°46' W 095°05'2 1.8
2015-Aug-28 00:33N 29°45' W 095°06'6 0.5
2015-Aug-27 13:13N 29°44' W 095°12'0 0.1
2015-Aug-27 12:31N 29°45' W 095°12'0 0.0
2015-Aug-27 11:32N 29°45' W 095°12'0 0.0
2015-Aug-27 10:31N 29°45' W 095°12'0 0.0
2015-Aug-27 09:32N 29°45' W 095°12'0 0.0
2015-Aug-27 08:32N 29°45' W 095°12'0 0.0
2015-Aug-27 07:33N 29°45' W 095°12'1 0.7
2015-Aug-27 06:33N 29°45' W 095°11'7 6.4
2015-Aug-27 05:31N 29°47' W 095°04'0 0.0
2015-Aug-26 21:13N 29°47' W 095°04'0 0.1
2015-Aug-26 19:10N 29°47' W 095°05'0 0.4
2015-Aug-26 18:30N 29°47' W 095°04'0 0.3
2015-Aug-26 17:32N 29°47' W 095°05'1 0.3
2015-Aug-26 15:04N 29°47' W 095°04'0 0.0
2015-Aug-26 14:04N 29°47' W 095°04'1 0.9
2015-Aug-26 13:27N 29°47' W 095°05'0 0.1
2015-Aug-26 12:17N 29°47' W 095°05'0 0.0
2015-Aug-26 11:29N 29°47' W 095°05'0 0.0
2015-Aug-26 10:28N 29°47' W 095°05'0 0.0
2015-Aug-26 09:24N 29°47' W 095°05'0 0.0
2015-Aug-26 06:27N 29°47' W 095°05'0 0.0
2015-Aug-26 05:29N 29°47' W 095°05'0 0.0
2015-Aug-25 23:13N 29°47' W 095°05'0 0.0
2015-Aug-25 21:09N 29°47' W 095°05'0 0.0
2015-Aug-25 16:23N 29°47' W 095°05'0 0.1
2015-Aug-25 14:33N 29°47' W 095°04'0 0.1
2015-Aug-25 12:24N 29°47' W 095°05'0 0.0
2015-Aug-25 11:31N 29°47' W 095°05'0 0.0
2015-Aug-25 10:33N 29°47' W 095°05'0 0.0
2015-Aug-25 09:32N 29°47' W 095°05'0 0.0
2015-Aug-25 08:06N 29°47' W 095°05'0 0.0
2015-Aug-25 07:23N 29°47' W 095°05'0 0.2
2015-Aug-25 06:10N 29°47' W 095°04'2 2.7
2015-Aug-25 05:33N 29°46' W 095°05'2 2.3
2015-Aug-25 04:33N 29°44' W 095°03'0 0.0
2015-Aug-25 03:33N 29°44' W 095°03'0 0.0
2015-Aug-25 02:33N 29°44' W 095°03'0 0.0
2015-Aug-25 01:33N 29°44' W 095°03'0 0.0
2015-Aug-25 00:33N 29°44' W 095°03'0 0.0
2015-Aug-24 23:33N 29°44' W 095°03'0 0.0
2015-Aug-24 22:33N 29°44' W 095°03'0 0.0
2015-Aug-24 21:33N 29°44' W 095°03'0 0.0
2015-Aug-24 20:33N 29°44' W 095°03'0 0.0
2015-Aug-24 19:33N 29°44' W 095°03'0 0.0
2015-Aug-24 18:33N 29°44' W 095°03'0 0.0
2015-Aug-24 17:33N 29°44' W 095°03'0 0.0
2015-Aug-24 16:33N 29°44' W 095°03'0 0.0
2015-Aug-24 15:33N 29°44' W 095°03'0 0.0
2015-Aug-24 14:33N 29°44' W 095°03'0 0.0
2015-Aug-24 13:33N 29°44' W 095°03'0 0.0
2015-Aug-24 12:33N 29°44' W 095°03'0 0.0
2015-Aug-24 11:33N 29°44' W 095°03'0 0.0
2015-Aug-24 10:33N 29°44' W 095°03'2 1.7
2015-Aug-24 09:33N 29°45' W 095°04'2 2.0
2015-Aug-24 08:32N 29°47' W 095°05'0 0.1
2015-Aug-24 07:32N 29°47' W 095°05'0 0.2
2015-Aug-24 06:33N 29°47' W 095°05'0 0.0
2015-Aug-24 05:22N 29°47' W 095°05'0 0.0
2015-Aug-24 04:26N 29°47' W 095°05'0 0.0
2015-Aug-24 03:32N 29°47' W 095°05'0 0.0
2015-Aug-24 02:25N 29°47' W 095°05'0 0.0
2015-Aug-24 01:32N 29°47' W 095°05'0 0.0
2015-Aug-23 19:22N 29°47' W 095°05'0 0.0
2015-Aug-23 18:22N 29°47' W 095°05'0 0.0
2015-Aug-23 17:13N 29°47' W 095°05'0 0.0
2015-Aug-23 16:11N 29°47' W 095°05'0 0.0
2015-Aug-23 15:23N 29°47' W 095°05'0 0.0
2015-Aug-23 13:25N 29°47' W 095°05'0 0.0
2015-Aug-23 12:25N 29°47' W 095°05'0 0.0
2015-Aug-23 11:32N 29°47' W 095°05'0 0.0
2015-Aug-23 08:33N 29°47' W 095°05'0 0.0
2015-Aug-23 07:27N 29°47' W 095°05'0 0.0
2015-Aug-23 06:30N 29°47' W 095°05'0 0.0
2015-Aug-23 05:33N 29°47' W 095°05'0 0.0
2015-Aug-23 04:28N 29°47' W 095°05'0 0.0
2015-Aug-23 03:29N 29°47' W 095°05'0 0.0
2015-Aug-23 02:33N 29°47' W 095°05'0 0.0
2015-Aug-23 01:33N 29°47' W 095°05'0 0.0
2015-Aug-23 00:29N 29°47' W 095°05'0 0.0
2015-Aug-22 23:21N 29°47' W 095°05'0 0.0
2015-Aug-22 22:08N 29°47' W 095°05'0 0.0
2015-Aug-22 21:26N 29°47' W 095°05'0 0.0
2015-Aug-22 20:31N 29°47' W 095°05'0 0.0
2015-Aug-22 19:33N 29°47' W 095°05'0 0.0
2015-Aug-22 18:28N 29°47' W 095°05'0 0.0
2015-Aug-22 17:33N 29°47' W 095°05'0 0.0
2015-Aug-22 12:32N 29°47' W 095°05'0 0.0
2015-Aug-22 11:26N 29°47' W 095°05'0 0.0
2015-Aug-22 10:16N 29°47' W 095°05'0 0.0
2015-Aug-22 08:17N 29°47' W 095°05'0 0.0
2015-Aug-22 07:32N 29°47' W 095°05'0 0.0
2015-Aug-22 06:29N 29°47' W 095°05'0 0.0
2015-Aug-22 05:33N 29°47' W 095°05'0 0.0
2015-Aug-22 03:12N 29°47' W 095°05'0 0.0
2015-Aug-21 22:14N 29°47' W 095°05'0 0.0
2015-Aug-21 19:11N 29°47' W 095°05'0 0.0
2015-Aug-21 18:03N 29°47' W 095°05'0 0.0
2015-Aug-21 16:16N 29°47' W 095°05'0 0.0
2015-Aug-21 13:15N 29°47' W 095°05'0 0.0
2015-Aug-21 11:29N 29°47' W 095°05'0 0.0
2015-Aug-21 10:24N 29°47' W 095°05'0 0.0
2015-Aug-21 03:33N 29°47' W 095°05'3 2.8
2015-Aug-21 02:33N 29°45' W 095°06'1 1.2
2015-Aug-21 01:33N 29°46' W 095°05'2 0.8
2015-Aug-20 23:33N 29°47' W 095°05'0 0.2
2015-Aug-20 22:32N 29°47' W 095°04'0 0.1
2015-Aug-20 21:21N 29°47' W 095°05'0 0.1
2015-Aug-20 20:09N 29°47' W 095°05'0 0.3
2015-Aug-20 19:34N 29°47' W 095°05'3 3.0
2015-Aug-20 18:27N 29°44' W 095°06'6 5.2
2015-Aug-20 17:15N 29°44' W 095°13'  

Dump ship's entire track history